Strona główna
METAR-TAF:

METAR-TAF

Lotnisko :

Terre Haute, Indiana, Stany Zjednoczone

Szerokość geograficzna: 39-26-30N, Długość geograficzna: 087-19-31W, wysokość: 178 m

Aktualna obserwacja pogody

Raport powstał 50 minut temu, godzina 04:53 UTC
Cisza
Temperatura 14°C
Wilgotność 72%
Ciśnienie 1025 hPa
Widzialność: 16.1 km
bezchmurnie

METAR: KHUF 010453Z AUTO 00000KT 10SM CLR 14/09 A3028 RMK AO2 SLP251 T01390089 402390117

czas: 01:43 (05:43 UTC)

Prognoza

Raport powstał 23 minut temu, godzina 05:20 UTC
Prognoza ważna od 01 godzina 06 UTC do 02 godzina 06 UTC
Wiatr 3 kt z kierunków zmiennych
Widzialność: 10 km
Mało chmury na wysokości 25000 ft
Od 01 godzina 1400 UTC
Wiatr 8 kt od południe
Widzialność: 10 km
Rozproszone chmury na wysokości 15000 ft

TAF: KHUF 010520Z 0106/0206 VRB03KT P6SM FEW250 FM011400 17008KT P6SM SCT150

Obserwacja i prognoza pogody dla ponad 4000 lotnisk (raport METAR i TAF).

Dostępne stacje oznaczono żółtymi i czerwonymi punktami na mapie.

Najedź kursorem aby zobaczyć nazwę stacji.

Kliknij aby zobaczyć obserwacje i prognozy pogody.

Aby zmienić mapę: kliknij na zielony przycisk z czarnym krzyżykiem, aby powiększyć; na zielony przycisk z myślnikiem, aby pomniejszyć; na zielone strzałki, aby przejść do map sąsiednich.


METAR-TAF: